Terminal Aerodrome Forecast
Issued by NWS Jackson, KY

Home | Current Version | Previous Version | Text Only | Print | Product List | Glossary On
Versions: 1 2 3 4 5 6 7 8 9 10 11 12
651
FTUS43 KJKL 191139
TAFLOZ
TAF
KLOZ 191139Z 1912/2012 VRB03KT P6SM FEW150
     FM191400 24007KT P6SM SCT050 SCT120
     FM200000 VRB03KT P6SM SKC=

USA.gov is the U.S. government's official web portal to all federal, state and local government web resources and services.